KEKS

Details ICAO KEKS
Name Ennis Big Sky
Region United States
Timezone America/Denver (UTC-7.0)
Plans Departing 6
Arriving 6
Stats Elevation 5,383 ft / 1,641 m (AMSL)
Location 45.271758° -111.648639°
Runways 1
Magnetic Variation 12.044° E
Sunrise 2017-12-10 14:56:35 UTC / 2017-12-10 07:56:35 Local
Sunset 2017-12-10 23:45:24 UTC / 2017-12-10 16:45:24 Local
Advertisement - Login to hide

Runways

ID Width Length Bearing (true) Bearing (mag) Surface Threshold Offset Overrun Length
16 75 ft / 23 m 4,697 ft / 1,432 m 176.60° 164.56° Asphalt 0 ft / 0 m 0 ft / 0 m
34 75 ft / 23 m 4,697 ft / 1,432 m 356.60° 344.56° Asphalt 0 ft / 0 m 0 ft / 0 m

Map

Weather


0- 5 10 15 20 25 30 35+ Temperature / ° C

Clouds and Precipitation
Forecast for 2017-12-11 06:00 UTC. Updated an hour ago

Ground ~20,000 ft ~40,000 ft Winds

METAR

KEKS 110415Z AUTO 14008KT 10SM OVC047 M02/M09 A3055 RMK AO2

TAF

TAF KEKS 102344Z 1100/1124 18010KT P6SM SCT250

Frequencies

Unicom 122.80 MHz CTAF/UNICOM
Warning: Do not use this data for real-world aviation or navigation. No guarantee of current accuracy is given.